Time;durP1;ratioP1;P1;durP2;ratioP2;P2;SDS_P1;SDS_P2;PMS_P1;PMS_P2;Temp;Humidity;BMP_temperature;BMP_pressure;BME280_temperature;BME280_humidity;BME280_pressure;Samples;Min_cycle;Max_cycle;Signal;HPM_P1;HPM_P2
2021/06/08 00:02:22;;;;;;;12.55;6.53;;;;;;;;;;6229037;28;20053;-72
2021/06/08 00:05:23;;;;;;;7.90;6.20;;;;;;;;;;6228313;28;20081;-72
2021/06/08 00:08:25;;;;;;;8.48;5.55;;;;;;;;;;6212982;28;20081;-72
2021/06/08 00:11:26;;;;;;;10.07;5.65;;;;;;;;;;6204262;28;20046;-72
2021/06/08 00:14:29;;;;;;;8.07;5.50;;;;;;;;;;6204400;28;20485;-72
2021/06/08 00:17:31;;;;;;;6.05;5.18;;;;;;;;;;6203951;28;20042;-72
2021/06/08 00:20:32;;;;;;;9.30;5.60;;;;;;;;;;6201101;28;20050;-72
2021/06/08 00:23:33;;;;;;;7.60;4.82;;;;;;;;;;6204302;28;20084;-71
2021/06/08 00:26:36;;;;;;;7.28;5.53;;;;;;;;;;6205114;28;20406;-72
2021/06/08 00:29:38;;;;;;;7.22;5.30;;;;;;;;;;6204333;28;20042;-73
2021/06/08 00:32:40;;;;;;;7.68;5.80;;;;;;;;;;6204765;28;20042;-72
2021/06/08 00:35:41;;;;;;;8.57;5.95;;;;;;;;;;6203806;28;20053;-72
2021/06/08 00:38:42;;;;;;;7.03;5.57;;;;;;;;;;6204666;28;20434;-72
2021/06/08 00:41:44;;;;;;;6.82;5.00;;;;;;;;;;6204407;28;20050;-72
2021/06/08 00:44:47;;;;;;;6.63;5.70;;;;;;;;;;6204241;28;20498;-71
2021/06/08 00:47:48;;;;;;;9.17;5.70;;;;;;;;;;6205280;28;20051;-71
2021/06/08 00:50:50;;;;;;;8.35;6.38;;;;;;;;;;6203578;28;20046;-71
2021/06/08 00:53:52;;;;;;;6.78;5.75;;;;;;;;;;6204431;28;20046;-71
2021/06/08 00:56:55;;;;;;;7.67;5.50;;;;;;;;;;6203397;28;20054;-72
2021/06/08 00:59:58;;;;;;;6.70;5.95;;;;;;;;;;6203653;28;20046;-72
2021/06/08 01:02:59;;;;;;;7.73;5.00;;;;;;;;;;6202976;28;20105;-73
2021/06/08 01:06:00;;;;;;;7.45;5.20;;;;;;;;;;6203733;28;20050;-73
2021/06/08 01:09:03;;;;;;;6.93;5.10;;;;;;;;;;6229675;23;20192;-75
2021/06/08 01:12:05;;;;;;;6.97;4.90;;;;;;;;;;6230433;28;20101;-75
2021/06/08 01:15:09;;;;;;;5.43;4.90;;;;;;;;;;6230737;28;20050;-74
2021/06/08 01:18:25;;;;;;;5.70;5.07;;;;;;;;;;6176518;28;20038;-74
2021/06/08 01:21:28;;;;;;;6.82;5.50;;;;;;;;;;6202990;28;20129;-74
2021/06/08 01:24:29;;;;;;;11.73;5.75;;;;;;;;;;6201494;28;20425;-74
2021/06/08 01:27:31;;;;;;;7.63;5.93;;;;;;;;;;6200929;28;20062;-75
2021/06/08 01:30:32;;;;;;;6.97;5.53;;;;;;;;;;6200984;28;20042;-74
2021/06/08 01:33:36;;;;;;;7.80;5.57;;;;;;;;;;6205882;28;20575;-75
2021/06/08 01:36:40;;;;;;;8.82;5.75;;;;;;;;;;6200864;28;20125;-76
2021/06/08 01:39:46;;;;;;;8.18;6.05;;;;;;;;;;6199570;28;20046;-73
2021/06/08 01:42:48;;;;;;;8.45;6.00;;;;;;;;;;6199005;28;20100;-77
2021/06/08 01:45:50;;;;;;;8.57;5.75;;;;;;;;;;6199226;28;20049;-74
2021/06/08 01:48:52;;;;;;;9.18;6.70;;;;;;;;;;6200441;28;20070;-76
2021/06/08 01:52:00;;;;;;;6.88;6.03;;;;;;;;;;6199698;28;20125;-74
2021/06/08 01:55:08;;;;;;;8.85;6.03;;;;;;;;;;6201414;28;20042;-74
2021/06/08 01:58:12;;;;;;;8.43;6.40;;;;;;;;;;6200758;28;20046;-75
2021/06/08 02:01:16;;;;;;;7.63;6.68;;;;;;;;;;6200583;28;20517;-74
2021/06/08 02:04:26;;;;;;;9.10;6.47;;;;;;;;;;6201375;28;20085;-74
2021/06/08 02:07:36;;;;;;;11.85;6.22;;;;;;;;;;6203717;28;20046;-78
2021/06/08 02:10:47;;;;;;;8.32;6.43;;;;;;;;;;6206948;28;20042;-73
2021/06/08 02:13:53;;;;;;;10.20;6.65;;;;;;;;;;6202097;28;20485;-73
2021/06/08 02:16:56;;;;;;;9.52;6.85;;;;;;;;;;6205202;28;20130;-74
2021/06/08 02:20:03;;;;;;;11.02;7.10;;;;;;;;;;6204465;28;20034;-72
2021/06/08 02:23:11;;;;;;;7.35;6.53;;;;;;;;;;6206698;28;20042;-73
2021/06/08 02:26:12;;;;;;;8.98;5.97;;;;;;;;;;6206222;28;20065;-74
2021/06/08 02:29:14;;;;;;;8.82;6.82;;;;;;;;;;6205546;28;20081;-74
2021/06/08 02:32:15;;;;;;;7.75;6.20;;;;;;;;;;6205776;28;20046;-75
2021/06/08 02:35:18;;;;;;;8.93;6.40;;;;;;;;;;6206538;28;20046;-74
2021/06/08 02:38:21;;;;;;;7.28;6.38;;;;;;;;;;6205593;28;20125;-74
2021/06/08 02:41:23;;;;;;;7.90;6.68;;;;;;;;;;6205854;28;20494;-75
2021/06/08 02:44:24;;;;;;;8.07;6.00;;;;;;;;;;6206229;28;20043;-74
2021/06/08 02:47:26;;;;;;;8.27;6.40;;;;;;;;;;6206369;28;20133;-74
2021/06/08 02:50:27;;;;;;;7.57;6.53;;;;;;;;;;6201581;28;20169;-75
2021/06/08 02:53:30;;;;;;;7.40;6.32;;;;;;;;;;6205465;28;20093;-74
2021/06/08 02:56:32;;;;;;;7.32;6.63;;;;;;;;;;6205942;28;20121;-74
2021/06/08 02:59:34;;;;;;;7.75;6.20;;;;;;;;;;6205769;28;20133;-74
2021/06/08 03:02:38;;;;;;;7.47;6.68;;;;;;;;;;6205784;28;20121;-74
2021/06/08 03:05:42;;;;;;;8.15;6.65;;;;;;;;;;6203531;28;20050;-74
2021/06/08 03:08:50;;;;;;;8.32;6.18;;;;;;;;;;6215207;28;20073;-74
2021/06/08 03:11:52;;;;;;;7.25;6.28;;;;;;;;;;6229543;28;20136;-74
2021/06/08 03:14:54;;;;;;;5.97;5.30;;;;;;;;;;6229028;28;20061;-74
2021/06/08 03:17:56;;;;;;;7.47;5.25;;;;;;;;;;6228922;28;20157;-74
2021/06/08 03:21:00;;;;;;;9.20;6.03;;;;;;;;;;6229331;28;20125;-74
2021/06/08 03:24:07;;;;;;;6.43;5.50;;;;;;;;;;6228439;28;20061;-74
2021/06/08 03:27:09;;;;;;;7.13;4.85;;;;;;;;;;6228737;28;20128;-74
2021/06/08 03:30:11;;;;;;;7.05;5.07;;;;;;;;;;6227982;28;20072;-75
2021/06/08 03:33:13;;;;;;;7.50;5.33;;;;;;;;;;6229176;28;20481;-74
2021/06/08 03:36:16;;;;;;;9.52;5.70;;;;;;;;;;6229447;28;20070;-74
2021/06/08 03:39:20;;;;;;;8.98;5.43;;;;;;;;;;6229514;28;20070;-74
2021/06/08 03:42:21;;;;;;;8.85;5.13;;;;;;;;;;6229257;28;20080;-74
2021/06/08 03:45:23;;;;;;;7.57;5.18;;;;;;;;;;6228662;28;20073;-74
2021/06/08 03:48:24;;;;;;;7.20;5.82;;;;;;;;;;6228333;28;20038;-74
2021/06/08 03:51:27;;;;;;;6.32;5.50;;;;;;;;;;6228857;28;20131;-74
2021/06/08 03:54:30;;;;;;;8.93;5.45;;;;;;;;;;6218220;28;20125;-74
2021/06/08 03:57:38;;;;;;;10.65;7.70;;;;;;;;;;6228174;28;20457;-75
2021/06/08 04:00:40;;;;;;;10.95;8.35;;;;;;;;;;6228923;28;20061;-74
2021/06/08 04:03:42;;;;;;;11.23;9.07;;;;;;;;;;6228622;28;20089;-74
2021/06/08 04:06:43;;;;;;;11.75;9.85;;;;;;;;;;6227794;28;20128;-74
2021/06/08 04:09:47;;;;;;;14.65;10.50;;;;;;;;;;6226909;28;20088;-75
2021/06/08 04:12:49;;;;;;;10.98;9.38;;;;;;;;;;6228024;28;20073;-75
2021/06/08 04:15:51;;;;;;;14.18;9.45;;;;;;;;;;6227522;28;20053;-74
2021/06/08 04:18:52;;;;;;;10.93;8.88;;;;;;;;;;6228245;28;20088;-74
2021/06/08 04:21:53;;;;;;;12.80;9.73;;;;;;;;;;6227067;28;20381;-74
2021/06/08 04:24:56;;;;;;;14.30;9.25;;;;;;;;;;6227751;28;20196;-74
2021/06/08 04:27:57;;;;;;;11.00;9.50;;;;;;;;;;6226914;28;20064;-74
2021/06/08 04:30:58;;;;;;;13.73;10.63;;;;;;;;;;6227954;28;20133;-74
2021/06/08 04:33:59;;;;;;;13.85;10.48;;;;;;;;;;6227455;28;20069;-74
2021/06/08 04:37:01;;;;;;;12.20;10.27;;;;;;;;;;6226930;28;20117;-74
2021/06/08 04:40:04;;;;;;;14.07;10.70;;;;;;;;;;6226908;28;20462;-74
2021/06/08 04:43:05;;;;;;;;;;;;;;;;;;6228209;28;20042;-75
2021/06/08 04:46:13;;;;;;;13.27;11.48;;;;;;;;;;6225936;28;19975;-74
2021/06/08 04:49:16;;;;;;;13.30;10.77;;;;;;;;;;6226698;28;20070;-75
2021/06/08 04:52:17;;;;;;;12.32;10.55;;;;;;;;;;6231328;28;20139;-74
2021/06/08 04:55:20;;;;;;;14.60;11.32;;;;;;;;;;6226744;28;20105;-75
2021/06/08 04:58:22;;;;;;;13.52;11.35;;;;;;;;;;6226209;28;20038;-74
2021/06/08 05:01:27;;;;;;;15.95;11.85;;;;;;;;;;6227357;28;20149;-75
2021/06/08 05:04:29;;;;;;;15.02;11.30;;;;;;;;;;6225940;28;20125;-74
2021/06/08 05:07:30;;;;;;;16.05;11.90;;;;;;;;;;6226937;28;20065;-74
2021/06/08 05:10:34;;;;;;;12.23;9.82;;;;;;;;;;6227105;28;20065;-74
2021/06/08 05:13:35;;;;;;;;;;;;;;;;;;6226640;28;20436;-74
2021/06/08 05:16:39;;;;;;;12.88;10.55;;;;;;;;;;6226563;28;19979;-75
2021/06/08 05:19:40;;;;;;;;;;;;;;;;;;6227087;28;20069;-75
2021/06/08 05:22:41;;;;;;;15.25;11.63;;;;;;;;;;6226240;28;19977;-74
2021/06/08 05:25:44;;;;;;;13.98;11.25;;;;;;;;;;6225869;28;20069;-74
2021/06/08 05:28:45;;;;;;;13.82;10.65;;;;;;;;;;6225581;28;20465;-74
2021/06/08 05:31:47;;;;;;;12.90;10.23;;;;;;;;;;6231924;28;20045;-75
2021/06/08 05:34:48;;;;;;;10.32;7.78;;;;;;;;;;6225653;28;20188;-74
2021/06/08 05:37:49;;;;;;;5.80;5.13;;;;;;;;;;6225270;28;20076;-74
2021/06/08 05:40:52;;;;;;;7.47;5.40;;;;;;;;;;6225134;28;20042;-75
2021/06/08 05:43:53;;;;;;;8.18;5.32;;;;;;;;;;6225072;28;20121;-76
2021/06/08 05:46:54;;;;;;;10.20;4.32;;;;;;;;;;6224956;28;20080;-75
2021/06/08 05:49:55;;;;;;;5.55;3.42;;;;;;;;;;6224789;28;20048;-76
2021/06/08 05:52:56;;;;;;;4.07;2.35;;;;;;;;;;6225376;28;20125;-76
2021/06/08 05:55:59;;;;;;;4.90;2.53;;;;;;;;;;6224603;28;20060;-75
2021/06/08 05:59:00;;;;;;;5.63;2.50;;;;;;;;;;6225837;28;20076;-75
2021/06/08 06:02:02;;;;;;;5.50;2.08;;;;;;;;;;6224345;28;20132;-75
2021/06/08 06:05:03;;;;;;;3.85;2.33;;;;;;;;;;6225129;28;20076;-75
2021/06/08 06:08:05;;;;;;;5.85;2.60;;;;;;;;;;6217841;28;20037;-75
2021/06/08 06:11:09;;;;;;;4.07;1.92;;;;;;;;;;6236088;28;20173;-75
2021/06/08 06:14:10;;;;;;;4.50;2.50;;;;;;;;;;6223515;28;20049;-74
2021/06/08 06:17:12;;;;;;;5.78;2.45;;;;;;;;;;6224525;28;20041;-74
2021/06/08 06:20:14;;;;;;;5.07;1.92;;;;;;;;;;6229854;28;20042;-74
2021/06/08 06:23:16;;;;;;;3.97;2.00;;;;;;;;;;6223877;28;20473;-78
2021/06/08 06:26:20;;;;;;;2.95;1.80;;;;;;;;;;6223505;28;20440;-74
2021/06/08 06:29:21;;;;;;;7.10;2.10;;;;;;;;;;6222506;28;20046;-74
2021/06/08 06:32:22;;;;;;;4.35;2.08;;;;;;;;;;6223922;28;20057;-74
2021/06/08 06:35:23;;;;;;;2.97;1.80;;;;;;;;;;6223697;28;20042;-75
2021/06/08 06:38:25;;;;;;;4.30;1.80;;;;;;;;;;6223401;28;20391;-71
2021/06/08 06:41:27;;;;;;;3.60;1.88;;;;;;;;;;6223443;28;20042;-72
2021/06/08 06:44:29;;;;;;;4.70;2.30;;;;;;;;;;6223431;28;20124;-71
2021/06/08 06:47:30;;;;;;;2.72;1.65;;;;;;;;;;6223340;28;20511;-71
2021/06/08 06:50:33;;;;;;;4.80;1.95;;;;;;;;;;6222413;28;20121;-72
2021/06/08 06:53:34;;;;;;;2.63;1.70;;;;;;;;;;6225238;28;20050;-72
2021/06/08 06:56:38;;;;;;;1.98;1.77;;;;;;;;;;6227411;28;20065;-72
2021/06/08 06:59:39;;;;;;;2.95;1.70;;;;;;;;;;6227286;28;20081;-74
2021/06/08 07:02:40;;;;;;;4.55;2.08;;;;;;;;;;6227559;28;20042;-73
2021/06/08 07:05:44;;;;;;;7.68;2.08;;;;;;;;;;6214784;28;20203;-73
2021/06/08 07:08:49;;;;;;;2.95;2.20;;;;;;;;;;6241654;28;20038;-73
2021/06/08 07:11:52;;;;;;;5.82;2.28;;;;;;;;;;6226961;28;20157;-73
2021/06/08 07:14:54;;;;;;;;;;;;;;;;;;6228231;28;20074;-73
2021/06/08 07:17:56;;;;;;;8.82;2.45;;;;;;;;;;6227217;28;19967;-73
2021/06/08 07:20:59;;;;;;;5.53;2.47;;;;;;;;;;6227486;28;20481;-73
2021/06/08 07:24:01;;;;;;;4.80;2.72;;;;;;;;;;6227462;28;20524;-72
2021/06/08 07:27:04;;;;;;;3.90;3.10;;;;;;;;;;6227507;28;20461;-73
2021/06/08 07:30:07;;;;;;;5.28;3.00;;;;;;;;;;6227401;28;20073;-74
2021/06/08 07:33:12;;;;;;;2.45;2.10;;;;;;;;;;6227603;28;20129;-74
2021/06/08 07:36:20;;;;;;;5.30;2.10;;;;;;;;;;6227442;28;20038;-74
2021/06/08 07:39:26;;;;;;;6.72;2.60;;;;;;;;;;6228007;28;20053;-72
2021/06/08 07:42:36;;;;;;;3.60;2.40;;;;;;;;;;6227474;28;20042;-72
2021/06/08 07:45:40;;;;;;;7.85;2.55;;;;;;;;;;6227422;28;20541;-73
2021/06/08 07:48:43;;;;;;;5.22;2.90;;;;;;;;;;6192191;28;20047;-73
2021/06/08 07:51:45;;;;;;;5.15;2.65;;;;;;;;;;6202378;28;20061;-73
2021/06/08 07:54:47;;;;;;;8.73;3.28;;;;;;;;;;6203201;28;20049;-73
2021/06/08 07:57:49;;;;;;;6.90;3.72;;;;;;;;;;6202914;28;20054;-74
2021/06/08 08:00:52;;;;;;;4.97;3.70;;;;;;;;;;6203338;28;20157;-73
2021/06/08 08:03:53;;;;;;;5.63;3.88;;;;;;;;;;6202190;28;20046;-74
2021/06/08 08:06:54;;;;;;;5.45;3.65;;;;;;;;;;6202604;28;20129;-74
2021/06/08 08:09:56;;;;;;;5.05;3.60;;;;;;;;;;6199014;28;20114;-74
2021/06/08 08:12:58;;;;;;;6.20;3.67;;;;;;;;;;6202314;28;20479;-74
2021/06/08 08:16:03;;;;;;;4.93;3.75;;;;;;;;;;6201870;28;20042;-74
2021/06/08 08:19:04;;;;;;;5.55;3.35;;;;;;;;;;6202783;28;20131;-74
2021/06/08 08:22:06;;;;;;;4.72;3.60;;;;;;;;;;6201314;28;20038;-74
2021/06/08 08:25:08;;;;;;;6.17;3.03;;;;;;;;;;6201712;28;20042;-74
2021/06/08 08:28:11;;;;;;;;;;;;;;;;;;6202145;28;20448;-74
2021/06/08 08:31:15;;;;;;;5.65;4.38;;;;;;;;;;6202062;28;20008;-74
2021/06/08 08:34:16;;;;;;;7.10;5.30;;;;;;;;;;6200990;28;20478;-73
2021/06/08 08:37:17;;;;;;;6.72;5.05;;;;;;;;;;6202441;28;20050;-73
2021/06/08 08:40:22;;;;;;;8.68;5.63;;;;;;;;;;6177372;28;20081;-74
2021/06/08 08:43:25;;;;;;;10.60;7.80;;;;;;;;;;6213500;28;20046;-74
2021/06/08 08:46:26;;;;;;;12.65;9.82;;;;;;;;;;6202399;28;20121;-74
2021/06/08 08:49:28;;;;;;;14.68;10.88;;;;;;;;;;6201802;28;20042;-74
2021/06/08 08:52:29;;;;;;;11.25;10.05;;;;;;;;;;6201885;28;20441;-74
2021/06/08 08:55:32;;;;;;;14.30;11.82;;;;;;;;;;6202305;28;20432;-74
2021/06/08 08:58:35;;;;;;;14.77;12.00;;;;;;;;;;6201367;28;20366;-74
2021/06/08 09:01:37;;;;;;;;;;;;;;;;;;6201759;28;20050;-74
2021/06/08 09:04:38;;;;;;;14.93;11.27;;;;;;;;;;6200820;28;19988;-74
2021/06/08 09:07:40;;;;;;;13.93;10.98;;;;;;;;;;6200650;28;20585;-75
2021/06/08 09:10:42;;;;;;;13.35;10.40;;;;;;;;;;6200116;28;20426;-74
2021/06/08 09:13:45;;;;;;;12.00;10.80;;;;;;;;;;6200908;28;20101;-74
2021/06/08 09:16:46;;;;;;;12.52;11.23;;;;;;;;;;6199341;28;20134;-74
2021/06/08 09:19:47;;;;;;;87.45;36.75;;;;;;;;;;6199918;28;20133;-75
2021/06/08 09:22:53;;;;;;;16.60;11.68;;;;;;;;;;6200100;28;20050;-74
2021/06/08 09:25:56;;;;;;;13.50;10.63;;;;;;;;;;6200456;28;20097;-74
2021/06/08 09:28:59;;;;;;;12.80;11.43;;;;;;;;;;6200176;28;20128;-74
2021/06/08 09:32:14;;;;;;;14.50;11.80;;;;;;;;;;6200185;28;20129;-74
2021/06/08 09:35:16;;;;;;;13.65;11.15;;;;;;;;;;6200125;28;20086;-73
2021/06/08 09:38:17;;;;;;;10.02;8.73;;;;;;;;;;6198934;28;20049;-74
2021/06/08 09:41:23;;;;;;;11.40;8.80;;;;;;;;;;6199829;28;20120;-74
2021/06/08 09:44:25;;;;;;;21.05;10.32;;;;;;;;;;6199801;28;20120;-74
2021/06/08 09:47:30;;;;;;;9.88;8.88;;;;;;;;;;6199520;28;20489;-74
2021/06/08 09:50:34;;;;;;;10.05;9.00;;;;;;;;;;6200151;28;20053;-74
2021/06/08 09:53:36;;;;;;;9.48;8.25;;;;;;;;;;6200278;28;20051;-74
2021/06/08 09:56:38;;;;;;;10.13;7.57;;;;;;;;;;6199519;28;20526;-74
2021/06/08 09:59:46;;;;;;;7.32;6.63;;;;;;;;;;6199681;28;20476;-74
2021/06/08 10:02:48;;;;;;;9.13;8.13;;;;;;;;;;6199913;28;20097;-74
2021/06/08 10:06:04;;;;;;;8.68;7.78;;;;;;;;;;6199283;28;20049;-75
2021/06/08 10:09:09;;;;;;;10.52;7.18;;;;;;;;;;6196494;28;20066;-74
2021/06/08 10:12:12;;;;;;;10.27;8.25;;;;;;;;;;6198764;28;20054;-75
2021/06/08 10:15:14;;;;;;;;;;;;;;;;;;6200010;28;20045;-74
2021/06/08 10:18:17;;;;;;;8.50;7.63;;;;;;;;;;6198369;28;20012;-74
2021/06/08 10:21:34;;;;;;;8.80;6.45;;;;;;;;;;6199216;28;20462;-77
2021/06/08 10:24:35;;;;;;;8.35;6.13;;;;;;;;;;6199483;28;20042;-79
2021/06/08 10:27:36;;;;;;;8.52;7.63;;;;;;;;;;6202989;28;20046;-81
2021/06/08 10:30:39;;;;;;;8.50;7.25;;;;;;;;;;6206493;28;20064;-79
2021/06/08 10:33:42;;;;;;;11.88;6.15;;;;;;;;;;6206706;28;20125;-78
2021/06/08 10:36:44;;;;;;;5.78;5.15;;;;;;;;;;6203489;28;20066;-74
2021/06/08 10:39:45;;;;;;;4.32;3.50;;;;;;;;;;6204268;28;20125;-75
2021/06/08 10:42:47;;;;;;;6.45;3.50;;;;;;;;;;6202614;28;20189;-75
2021/06/08 10:45:52;;;;;;;5.28;3.80;;;;;;;;;;6203354;28;20097;-74
2021/06/08 10:48:53;;;;;;;5.32;3.78;;;;;;;;;;6203825;28;20042;-76
2021/06/08 10:52:05;;;;;;;6.60;5.93;;;;;;;;;;6203208;28;20434;-78
2021/06/08 10:55:08;;;;;;;6.85;3.70;;;;;;;;;;6203901;28;20058;-75
2021/06/08 10:58:09;;;;;;;3.78;3.33;;;;;;;;;;6193781;28;20061;-73
2021/06/08 11:01:49;;;;;;;4.93;3.65;;;;;;;;;;6212630;28;20077;-73
2021/06/08 11:04:53;;;;;;;4.65;3.20;;;;;;;;;;6128230;29;20044;-74
2021/06/08 11:07:54;;;;;;;3.95;3.40;;;;;;;;;;6127427;29;20115;-73
2021/06/08 11:10:55;;;;;;;6.97;5.32;;;;;;;;;;6223727;28;20520;-74
2021/06/08 11:13:56;;;;;;;5.82;5.32;;;;;;;;;;6226880;28;20045;-72
2021/06/08 11:17:00;;;;;;;5.40;4.90;;;;;;;;;;6227099;28;20057;-74
2021/06/08 11:20:03;;;;;;;5.90;5.13;;;;;;;;;;6226127;28;20049;-72
2021/06/08 11:23:05;;;;;;;4.65;4.15;;;;;;;;;;6223653;28;20152;-72
2021/06/08 11:26:06;;;;;;;5.15;4.13;;;;;;;;;;6232717;28;20124;-72
2021/06/08 11:29:08;;;;;;;4.72;4.07;;;;;;;;;;6225907;28;20400;-74
2021/06/08 11:32:10;;;;;;;6.40;4.68;;;;;;;;;;6226413;28;20467;-72
2021/06/08 11:35:16;;;;;;;11.27;5.40;;;;;;;;;;6225856;28;20041;-75
2021/06/08 11:38:26;;;;;;;6.75;6.05;;;;;;;;;;6224711;28;20049;-73
2021/06/08 11:41:27;;;;;;;7.88;5.95;;;;;;;;;;6225498;28;20564;-73
2021/06/08 11:44:28;;;;;;;7.07;6.15;;;;;;;;;;6225348;28;20375;-73
2021/06/08 11:47:35;;;;;;;8.10;7.28;;;;;;;;;;6225616;28;20054;-73
2021/06/08 11:50:41;;;;;;;8.35;7.40;;;;;;;;;;6225922;28;20042;-73
2021/06/08 11:53:57;;;;;;;11.18;7.15;;;;;;;;;;6225267;28;20038;-73
2021/06/08 11:57:00;;;;;;;7.90;7.15;;;;;;;;;;6225464;28;20042;-73
2021/06/08 12:00:01;;;;;;;9.23;6.85;;;;;;;;;;6224216;28;20461;-74
2021/06/08 12:03:24;;;;;;;9.98;8.77;;;;;;;;;;6225112;28;20074;-75
2021/06/08 12:06:56;;;;;;;11.68;7.50;;;;;;;;;;6226189;28;20052;-74
2021/06/08 12:09:58;;;;;;;10.40;7.55;;;;;;;;;;6225540;28;20159;-77
2021/06/08 12:12:59;;;;;;;;;;;;;;;;;;6225420;28;20137;-76
2021/06/08 12:16:01;;;;;;;7.65;6.95;;;;;;;;;;6224735;28;19921;-77
2021/06/08 12:19:07;;;;;;;7.25;6.20;;;;;;;;;;6224809;28;20529;-76
2021/06/08 12:22:21;;;;;;;10.40;6.88;;;;;;;;;;6225284;28;20041;-76
2021/06/08 12:25:23;;;;;;;6.35;5.43;;;;;;;;;;6225589;28;20046;-76
2021/06/08 12:28:24;;;;;;;9.93;8.25;;;;;;;;;;6223089;28;20041;-75
2021/06/08 12:31:25;;;;;;;9.30;7.35;;;;;;;;;;6221550;28;20052;-75
2021/06/08 12:34:34;;;;;;;6.40;5.80;;;;;;;;;;6213313;28;20124;-76
2021/06/08 12:37:35;;;;;;;6.40;5.80;;;;;;;;;;6224290;28;20077;-75
2021/06/08 12:40:37;;;;;;;13.25;7.40;;;;;;;;;;6223932;28;20038;-77
2021/06/08 12:43:42;;;;;;;7.30;6.60;;;;;;;;;;6225256;28;20424;-76
2021/06/08 12:46:43;;;;;;;15.35;7.18;;;;;;;;;;6224433;28;20364;-76
2021/06/08 12:49:45;;;;;;;10.20;7.93;;;;;;;;;;6223747;28;20046;-75
2021/06/08 12:52:56;;;;;;;8.60;7.70;;;;;;;;;;6223641;28;20054;-75
2021/06/08 12:55:57;;;;;;;8.73;7.82;;;;;;;;;;6224153;28;20349;-75
2021/06/08 12:58:59;;;;;;;11.10;9.02;;;;;;;;;;6211807;28;20480;-75
2021/06/08 13:02:02;;;;;;;10.15;8.85;;;;;;;;;;6199340;28;20042;-75
2021/06/08 13:05:07;;;;;;;9.93;8.57;;;;;;;;;;6188937;28;20290;-75
2021/06/08 13:08:08;;;;;;;9.27;7.93;;;;;;;;;;6195130;28;20058;-75
2021/06/08 13:11:28;;;;;;;9.63;8.68;;;;;;;;;;6199906;28;20148;-74
2021/06/08 13:14:29;;;;;;;10.63;6.90;;;;;;;;;;6210194;28;20188;-75
2021/06/08 13:17:30;;;;;;;10.32;7.97;;;;;;;;;;6198919;28;20148;-74
2021/06/08 13:20:35;;;;;;;9.07;8.05;;;;;;;;;;6198916;28;20128;-76
2021/06/08 13:23:37;;;;;;;12.90;8.38;;;;;;;;;;6200122;28;20133;-75
2021/06/08 13:26:38;;;;;;;12.60;8.43;;;;;;;;;;6197947;28;20053;-75
2021/06/08 13:29:39;;;;;;;16.15;7.00;;;;;;;;;;6199013;28;20130;-75
2021/06/08 13:32:40;;;;;;;9.27;6.30;;;;;;;;;;6199152;28;20129;-74
2021/06/08 13:35:51;;;;;;;11.00;7.97;;;;;;;;;;6199403;28;20050;-74
2021/06/08 13:38:53;;;;;;;7.75;6.95;;;;;;;;;;6198966;28;20072;-75
2021/06/08 13:41:55;;;;;;;12.73;6.90;;;;;;;;;;6198981;28;20431;-75
2021/06/08 13:44:58;;;;;;;7.53;4.78;;;;;;;;;;6198663;28;20450;-75
2021/06/08 13:48:23;;;;;;;9.90;3.70;;;;;;;;;;6198351;28;20129;-74
2021/06/08 13:51:26;;;;;;;5.88;3.60;;;;;;;;;;6187808;28;20046;-75
2021/06/08 13:54:34;;;;;;;6.38;3.53;;;;;;;;;;6173234;28;20117;-75
2021/06/08 13:57:42;;;;;;;5.43;3.40;;;;;;;;;;6173356;28;20050;-75
2021/06/08 14:00:42;;;;;;;6.72;3.60;;;;;;;;;;6164078;28;20133;-76
2021/06/08 14:03:59;;;;;;;12.43;3.88;;;;;;;;;;6184584;28;20466;-75
2021/06/08 14:07:01;;;;;;;8.55;3.45;;;;;;;;;;6193032;28;20066;-76
2021/06/08 14:10:07;;;;;;;14.00;3.75;;;;;;;;;;6197539;28;20217;-76
2021/06/08 14:13:09;;;;;;;6.07;3.78;;;;;;;;;;6197151;28;20057;-76
2021/06/08 14:16:19;;;;;;;4.63;3.50;;;;;;;;;;6195963;28;20073;-74
2021/06/08 14:19:20;;;;;;;9.98;3.95;;;;;;;;;;6197764;28;20042;-74
2021/06/08 14:22:23;;;;;;;6.57;3.83;;;;;;;;;;6196507;28;20130;-74
2021/06/08 14:25:24;;;;;;;14.63;4.38;;;;;;;;;;6196449;28;20481;-74
2021/06/08 14:28:26;;;;;;;16.38;4.28;;;;;;;;;;6196726;28;20540;-75
2021/06/08 14:31:29;;;;;;;15.60;4.40;;;;;;;;;;6196878;28;20130;-73
2021/06/08 14:34:31;;;;;;;22.02;4.70;;;;;;;;;;6196484;28;20366;-76
2021/06/08 14:37:33;;;;;;;13.60;4.70;;;;;;;;;;6196633;28;20080;-75
2021/06/08 14:40:34;;;;;;;23.08;5.10;;;;;;;;;;6186746;28;20059;-74
2021/06/08 14:43:35;;;;;;;24.33;5.22;;;;;;;;;;6203293;28;20537;-74
2021/06/08 14:46:38;;;;;;;34.10;5.32;;;;;;;;;;6220866;28;20070;-74
2021/06/08 14:49:40;;;;;;;12.05;4.40;;;;;;;;;;6220381;28;20073;-74
2021/06/08 14:52:43;;;;;;;15.32;4.78;;;;;;;;;;6220309;28;20159;-74
2021/06/08 14:55:44;;;;;;;7.13;4.55;;;;;;;;;;6220875;28;20129;-74
2021/06/08 14:58:45;;;;;;;7.35;4.95;;;;;;;;;;6220357;28;20434;-74
2021/06/08 15:01:46;;;;;;;8.85;5.15;;;;;;;;;;6220599;28;20065;-74
2021/06/08 15:04:48;;;;;;;6.00;4.53;;;;;;;;;;6220084;28;20053;-75
2021/06/08 15:07:51;;;;;;;8.27;4.65;;;;;;;;;;6218041;28;20046;-74
2021/06/08 15:10:52;;;;;;;8.27;6.00;;;;;;;;;;6212868;28;20045;-75
2021/06/08 15:13:53;;;;;;;8.63;5.97;;;;;;;;;;6219138;28;20137;-74
2021/06/08 15:16:54;;;;;;;9.00;5.25;;;;;;;;;;6222506;28;20061;-75
2021/06/08 15:19:58;;;;;;;10.82;5.65;;;;;;;;;;6224929;28;20421;-74
2021/06/08 15:23:01;;;;;;;7.28;5.55;;;;;;;;;;6224829;28;20049;-74
2021/06/08 15:26:02;;;;;;;7.55;4.85;;;;;;;;;;6224742;28;20141;-74
2021/06/08 15:29:05;;;;;;;10.23;6.63;;;;;;;;;;6230165;28;20133;-74
2021/06/08 15:32:07;;;;;;;7.25;5.20;;;;;;;;;;6225403;28;20050;-74
2021/06/08 15:35:09;;;;;;;10.98;5.97;;;;;;;;;;6225589;28;20080;-74
2021/06/08 15:38:12;;;;;;;7.78;7.00;;;;;;;;;;6225341;28;20054;-74
2021/06/08 15:41:13;;;;;;;8.25;5.68;;;;;;;;;;6224713;28;20132;-74
2021/06/08 15:44:14;;;;;;;8.93;5.30;;;;;;;;;;6225797;28;20164;-74
2021/06/08 15:47:16;;;;;;;10.50;5.28;;;;;;;;;;6225140;28;20406;-74
2021/06/08 15:50:18;;;;;;;7.22;5.18;;;;;;;;;;6227826;28;20073;-73
2021/06/08 15:53:20;;;;;;;11.60;5.25;;;;;;;;;;6226516;28;20074;-74
2021/06/08 15:56:24;;;;;;;7.38;4.70;;;;;;;;;;6225368;28;20060;-74
2021/06/08 15:59:25;;;;;;;8.52;5.50;;;;;;;;;;6225263;28;20450;-75
2021/06/08 16:02:26;;;;;;;18.80;5.20;;;;;;;;;;6225594;28;20469;-77
2021/06/08 16:05:27;;;;;;;9.20;4.60;;;;;;;;;;6225016;28;20069;-76
2021/06/08 16:08:30;;;;;;;8.80;4.38;;;;;;;;;;6221559;28;20058;-77
2021/06/08 16:11:31;;;;;;;14.38;4.75;;;;;;;;;;6225432;28;20502;-76
2021/06/08 16:14:32;;;;;;;8.18;4.10;;;;;;;;;;6224374;28;20109;-76
2021/06/08 16:17:33;;;;;;;13.20;4.60;;;;;;;;;;6225782;28;20048;-76
2021/06/08 16:20:34;;;;;;;14.02;4.90;;;;;;;;;;6224408;28;20438;-76
2021/06/08 16:23:37;;;;;;;15.77;4.80;;;;;;;;;;6225480;28;20136;-76
2021/06/08 16:26:40;;;;;;;27.10;5.28;;;;;;;;;;6222589;28;20315;-76
2021/06/08 16:29:41;;;;;;;17.85;4.40;;;;;;;;;;6225167;28;20038;-76
2021/06/08 16:32:42;;;;;;;22.92;4.82;;;;;;;;;;6224613;28;20049;-75
2021/06/08 16:35:44;;;;;;;19.55;5.05;;;;;;;;;;6225230;28;20081;-76
2021/06/08 16:38:46;;;;;;;10.00;4.65;;;;;;;;;;6224659;28;20052;-75
2021/06/08 16:41:47;;;;;;;7.75;5.25;;;;;;;;;;6224604;28;20390;-75
2021/06/08 16:44:49;;;;;;;8.60;4.88;;;;;;;;;;6224092;28;20068;-75
2021/06/08 16:47:52;;;;;;;9.05;5.22;;;;;;;;;;6224562;28;20053;-75
2021/06/08 16:51:11;;;;;;;7.85;5.18;;;;;;;;;;6222735;28;20050;-75
2021/06/08 16:54:14;;;;;;;11.00;5.22;;;;;;;;;;6224884;28;20045;-75
2021/06/08 16:57:15;;;;;;;7.00;5.20;;;;;;;;;;6224362;28;20034;-75
2021/06/08 17:00:16;;;;;;;7.28;4.47;;;;;;;;;;6224320;28;20136;-75
2021/06/08 17:03:18;;;;;;;6.85;4.82;;;;;;;;;;6223534;28;20445;-74
2021/06/08 17:06:20;;;;;;;13.13;4.90;;;;;;;;;;6223947;28;20124;-75
2021/06/08 17:09:22;;;;;;;6.93;5.10;;;;;;;;;;6220562;28;20144;-75
2021/06/08 17:12:23;;;;;;;9.65;4.20;;;;;;;;;;6223889;28;20124;-75
2021/06/08 17:15:25;;;;;;;13.10;4.50;;;;;;;;;;6218766;28;20057;-76
2021/06/08 17:18:26;;;;;;;6.18;5.03;;;;;;;;;;6223848;28;20045;-75
2021/06/08 17:21:28;;;;;;;11.45;4.85;;;;;;;;;;6224171;28;20449;-75
2021/06/08 17:24:30;;;;;;;7.82;5.28;;;;;;;;;;6223760;28;20108;-75
2021/06/08 17:27:31;;;;;;;4.50;4.10;;;;;;;;;;6188708;28;20085;-76
2021/06/08 17:30:33;;;;;;;5.50;3.63;;;;;;;;;;6215783;28;20045;-76
2021/06/08 17:33:34;;;;;;;7.30;4.57;;;;;;;;;;6223566;28;20048;-75
2021/06/08 17:36:35;;;;;;;5.97;4.80;;;;;;;;;;6221628;28;20078;-76
2021/06/08 17:39:37;;;;;;;5.25;4.22;;;;;;;;;;6222609;28;20065;-75
2021/06/08 17:42:39;;;;;;;4.90;4.30;;;;;;;;;;6222710;28;20042;-75
2021/06/08 17:45:40;;;;;;;9.13;4.28;;;;;;;;;;6222673;28;20481;-75
2021/06/08 17:48:41;;;;;;;7.13;4.43;;;;;;;;;;6223407;28;20045;-75
2021/06/08 17:51:42;;;;;;;5.13;4.20;;;;;;;;;;6213572;28;20200;-75
2021/06/08 17:54:45;;;;;;;5.03;4.00;;;;;;;;;;6210980;28;20500;-75
2021/06/08 17:57:48;;;;;;;15.85;4.57;;;;;;;;;;6223181;28;20042;-75
2021/06/08 18:00:51;;;;;;;9.52;4.55;;;;;;;;;;6222221;28;20053;-75
2021/06/08 18:03:52;;;;;;;5.63;4.20;;;;;;;;;;6223917;28;20046;-75
2021/06/08 18:06:56;;;;;;;8.93;3.85;;;;;;;;;;6220157;28;20449;-75
2021/06/08 18:10:01;;;;;;;16.77;3.95;;;;;;;;;;6223126;28;20473;-74
2021/06/08 18:13:02;;;;;;;6.68;3.45;;;;;;;;;;6220647;28;20183;-74
2021/06/08 18:16:11;;;;;;;17.40;4.35;;;;;;;;;;6209194;28;20137;-74